Signals | Udo Isaenko, Niederlenz, SUI - JN47cj
Paging Controls
KHz ID LSB USB Sec. Fmt. Location S/P ITU Region GSQ Power Logs Notes Latest by Listener Last Heard KM Miles Deg
285 KTC 1014 1005 6.06 ID+2.5" gap Katowice / Pyrzowice POL eu JO90nl 1 INACTIVE - WAS PT 2013-12-08 2014-05-08 867 539 62
289 HR 399 406 10.42 ID+7" gap Hericourt FRA eu JN37in 25 1 2013-12-08 2024-05-26 114 71 279
290 TR 397 400 10 ID+8" gap Tirana / Rinas ALB eu JN91uk 1 INACTIVE 2013-12-08 2016-12-01 1126 700 121
292 NOV 1014 1019 10.08 ID+6" gap Novara (NO) ITA eu JN45jk 1 Province : Novara 2013-12-08 2022-01-15 222 138 168
295 PT 995 1004 9.92 ID+6" tone Skopje MKD eu KN01tv 50 1 2013-12-08 2024-06-12 1222 760 115
302 NIK 1011 1020 9.79 ID+6" tone Niksic MNE eu JN92ls 40 1 2013-12-08 2024-05-27 987 613 117
303 RTT 1020 1017 10.08 ID+8" gap Innsbruck / Rattenberg AUT eu JN57xk 1 2013-12-08 2024-05-26 282 175 87
308 MOJ 1005 1030 9.9 ID+5" tone Mojkovac MNE eu JN92sw 40 1 2013-12-08 2024-06-12 1016 631 115
318 AGB 1023 1016 7.29 ID+2" gap Augsburg DEU eu JN58lk 25 1 2013-12-08 2024-05-26 235 146 59
318 GEN 1024 1019 10.03 ID+7" gap Genova (GE) ITA eu JN44mk 1 SENDING *TEST* - Province : Genova 2013-12-08 2021-12-26 335 208 168
335 BER 404 403 10.15 ID+6" gap Bern / Belp SUI eu JN36sv 2 Decommissioned; antenna removed 2015-11-28 2020-07-25 75 47 222
337 AH 1019 1020 8 ID+6" gap Alghero (SS) SAR eu JN40dq 1 INACTIVE - Province : Sassari 2015-11-28 2018-04-28 746 463 179
337 LHR 1027 1014 8.04 ID+4" gap Lahr / Schwarzwald DEU eu JN38vi 2 2015-11-29 2024-05-15 111 69 343
337 VRN 985 1024 9.97 ID+7" tone Vranje SRB eu KN02wn 40 2 2015-11-28 2024-06-12 1199 745 111
338 MNW 398 401 10.08 ID+6" gap Munchen DEU eu JN58wi 25 1 2015-11-29 2024-05-15 293 182 67
338 NC 396 401 10.1 ID+8"gap Nice / Cote D'azur FRA eu JN33no 40 1 Not on Skyvector 2015-11-29 2022-03-15 430 267 191
339 NE 8 17.8 ID+17" tone Nancy / Essey FRA eu JN38bn 2 INACTIVE 2015-11-29 2019-10-27 202 126 310
340 BLK 979 974 10.11 ID+5" tone Banja Luka BIH eu JN85pc 40 1 2015-11-29 2024-05-15 743 462 106
340 FOG 1022 1019 10.08 ID+6" gap Foggia (FG) ITA eu JN71sk 100 1 INACTIVE - Province : Foggia 2015-11-29 2019-03-31 881 548 136
341 ALG 1030 1048 8.35 ID+5" gap Memmingen / Allgau DEU eu JN57dx 2 2015-11-29 2024-05-15 169 105 66
341 BZ 409 406 10.15 ID+7" gap Biarritz / Bayonne / Anglet FRA eu IN93hl 25 1 2015-11-29 2024-02-11 864 537 243
341 IS 401 407 10.6 Ajaccio / Campo del Oro COR eu JN41hv 50 1 Not on Skyvector 2015-11-29 2021-12-30 612 381 176
343 AR 10.36 ID+8" gap Aurillac FRA eu JN14ew 1 decommissioned June 2024 2015-11-29 2024-02-09 526 327 240
343 GRA 1023 1027 7.06 ID+3" gap Grazzanise (CE) ITA eu JN71bb 2 Province : Caserta 2015-11-29 2021-04-23 847 526 144
343 KUS 402 400 10.08 ID+7" gap Kaunas / Karmelava LTU eu KO24bx 100 1 IDX = Negative Keying 2015-11-29 2024-04-27 1388 862 46
344 TR 401 404 10.3 ID+8" gap Villefranche FRA eu JN25hw 1 INACTIVE 2015-11-29 2018-03-13 318 197 240
344 VAR 1030 1029 8.3 ID+5" gap Varazdin HRV eu JN86eh 1 Not on Skyvector 2015-11-29 2022-03-15 632 393 97
345 CS 399 403 10.39 ID+8" gap Carcassonne / Salvaza FRA eu JN13cf 1 Decommissioned 2022-08-11 2015-11-29 2022-12-08 659 409 227
345 FW 1019 1024 6.96 ID+3" gap Fiumicino (RM) ITA eu JN61cv 1 Decommissioned 2019-12-01 2013-12-08 2019-11-30 688 428 151
345 IGB 1030 1029 16.45 ID+24" tone Ingolstadt DEU eu JN58tr 25 1 Call changed from IGL to IGB on 2022-03-25 Decommissioned 2023-06-30 2015-11-29 2023-05-26 294 183 58
345 NB 403 399 4.97 ID+3" gap Malbork POL eu JO94oa 1 **SENDING TST** MISKEYING KS 2015-11-29 2024-04-27 1067 663 42
345 THS 46 333 6.12 ID+2" gap Thessaloniki / Makedonia GRC eu KN10lo 1 2015-11-29 2021-01-30 1397 868 117
345.5 CF 978 1024 13.06 ID+10" gap Caslav / Chotusice / Centograf CZE eu JN79rv 1 ILA/ILE = Negative Keying 2015-11-29 2024-04-26 600 373 59
346 CH 396 412 10.19 ID+8" gap Chambery / Aix-Les-Bains FRA eu JN25wo 1 2015-11-29 2024-05-15 268 166 222
346 WLU 1020 1020 10.08 ID+5" gap Luxembourg LUX eu JN39an 15 2 decommissioned 2022-12-29 2015-11-29 2022-12-27 289 180 327
347 CVT 400 402 10.23 ID+7" gap Chalons / Vatry FRA eu JN28ds 1 2015-11-29 2024-05-15 329 204 299
348 CL 400 408 10.15 ID+7" gap Cahors / Lalbenque FRA eu JN04rj 1 Decommissioned 2022-08-11 2015-11-29 2022-08-04 619 385 239
348 SVR 1009 1017 10.09 ID+6" gap Sagvar HNG eu JN96bt 1 Decommissioned 2019-07-01 2015-11-29 2019-06-30 753 468 91
348 TPL 1027 1029 9.87 ID+6" tone Topola SRB eu KN04id 1 2015-11-29 2024-05-15 1033 642 105
348 ZK 1038 1043 8.25 ID+5.5" gap Zadar HRV eu JN74qc 1 2015-11-29 2024-05-15 665 413 120
349 OPE 1020 1019 8.12 ID+5" gap Bucuresti / Otopeni ROU eu KN34cn 2 2015-11-29 2024-06-12 1423 884 96
349 RS 400 405 10.4 ID+8" gap Rennes / St Jacques FRA eu IN98eb 1 INACTIVE 2015-11-29 2017-01-21 739 459 279
350 BLA 1034 1015 10.04 ID+6" gap Cerrione (BI) ITA eu JN45bl 1 Province : Biella ; Inactive 17-05-2021 2013-12-08 2021-12-26 213 132 181
350 SK 1030 1033 8.5 ID+6" gap Zagreb / Pleso / S. Kraljevec HRV eu JN85bt 1 2013-12-08 2024-05-15 630 391 103
353 KRW 1007 1008 6.29 ID+3" gap Krakow / Balice POL eu JO90wc 1 INACTIVE 2013-12-08 2015-03-05 906 563 66
357 SME 1027 1025 6.96 ID+3.5" gap Olbia / Costa Smeralda (SS) SAR eu JN40sv 40 1 INACTIVE - Province : Sassari 2013-12-08 2019-11-23 730 454 171
358 MSE 400 400 8.09 ID+2" gap Munchen DEU eu JN58th 25 1 'TEST' (NOV2018) 400 Hz OFFSETS - WAS MSE-385.0 2013-12-08 2024-03-28 275 171 66
358 TUN 1019 1020 10.03 ID+7" gap Tulln for Schwechat AUT eu JN78xh 1 2013-12-08 2024-05-15 587 365 77
360 SR 1012 1025 7.08 ID+5" gap Saarbrucken / Ensheim DEU eu JN39of 25 1 2013-12-08 2021-01-18 217 135 340
362 BZO 1030 1018 10.04 ID+3" gap Bolzano (BZ) ITA eu JN56pl 40 1 INACTIVE - Province : Bolzano 2013-12-08 2016-01-05 255 159 112
363 CIG 1033 1025 8.25 ID+4" gap Izmir / Cigli / Kaklic TUR as KM38mm 25 1 2013-12-08 2024-05-15 1815 1128 116
364 MAL 1066 1065 6.94 ID+3" gap Gallarate / Malpensa (VA) ITA eu JN45jn 1 Province : Varese 2013-12-08 2022-01-20 209 130 167
365 VR 1013 1045 7.73 ID+5" gap Gran Canaria / Las Palmas CNR af IL27gu 200 1 2013-12-08 2024-03-14 2987 1856 231
367 ZAG 1023 1013 9.89 ID+6" tone Zagreb HRV eu JN85dv 50 1 decommissioned 2022-05-19 2013-12-08 2020-09-22 639 397 102
368 BYC 1048 1049 16.57 ID+8" tone Buckeburg DEU eu JO42ng 1 2013-12-08 2024-05-15 546 339 6
369 MNE 400 401 10.08 ID+6" gap Munchen DEU eu JN58ui 25 1 SENDING 'TST\" MID OCT 2018 2013-12-08 2024-05-15 282 175 66
369 VRS 1029 1031 8.34 ID+5" gap Vrsar HRV eu JN65tf 1 2013-12-08 2024-05-15 481 299 118
370 BSV 396 409 10.23 DAID Besancon / La Veze FRA eu JN37cg 1 Decommissioned November 2022 2013-12-08 2022-09-25 151 94 265
370 GAC 1005 1016 9.95 Gacko BIH eu JN93gd 40 1 2013-12-08 2021-12-29 935 581 116
371 LEV 1067 1066 7.62 ID+3" gap Savigliano / Levaldigi (CN) ITA eu JN34tn 1 Province : Cuneo - SENDING 2 EXTRA 'e' 2013-12-08 2024-05-15 318 198 188
371 RIV 998 12 9.84 ID+6" gap Codroipo / Rivolto (UD) ITA eu JN65lw 1 Province : Udine 2013-12-08 2024-05-15 397 247 112
372 CE 1029 1031 8.38 ID+6" gap Osijek / Cepin HRV eu JN95gm 50 1 2013-12-08 2024-05-15 818 508 100
372 ODR 399 388 7.57 ID+3" gap Kristiansand / Kjevik / Odderoy NOR eu JO38xd 1 decommissioned 2021-12-02 2013-12-08 2021-11-09 1195 743 359
372 PY 398 409 10.27 ID+7" gap Le Puy / Loudes FRA eu JN15va 1 2013-12-08 2024-02-05 430 267 233
373 LPD 1023 1016 10.04 ID+6" gap Lampedusa (AG) SCY eu JM65hm 1 Province : Agrigento 2013-12-08 2022-07-12 1370 851 162
374.5 ANC 1024 1017 10.08 ID+4" gap Ancona (AN) ITA eu JN63ro 35 1 INACTIVE - Province : Ancona 2013-12-08 2019-11-06 587 365 133
375 CHO 1015 1023 6.63 ID+3" gap Chociwel POL eu JO73pl 1 decommissioned 2020-12-03 2013-12-08 2020-12-02 841 523 33
375 GLA 399 409 10.23 ID+6" gap Gland for Geneva / Cointrain SUI eu JN36cj 1 2013-12-08 2024-05-15 188 117 234
379 PIS 1026 1019 6.9 ID+3" gap Pisa (PI) ITA eu JN53do 25 1 Province : Pisa 2013-12-08 2024-04-26 452 281 158
379 VEN 1068 1069 7.69 ID+4" gap Venezia (VE) ITA eu JN65dk 1 INACTIVE - Province : Venezia 2013-12-08 2018-04-21 381 237 123
380 HO 400 407 10.18 ID+7" gap Colmar / Houssen FRA eu JN38qd 1 2013-12-08 2024-05-15 104 65 323
380 VNV 1022 1027 10.23 ID+6" gap Vilanova i la Geltru ESP eu JN01uf 1 2013-12-08 2024-05-15 858 533 219
382 ALG 1013 10.04 Alghero (SS) SAR eu JN40dp 40 1 INACTIVE - Province : Sassari 2013-12-08 2019-02-12 751 466 179
382 GAZ 1031 1038 8.64 ID+3" gap Gazoldo degli Ippoliti (MN) ITA eu JN55he 25 1 decommissioned Mar2021-03-25 2013-12-08 2020-04-23 308 191 142
382 SBG 1026 1018 10.04 ID+6" gap Salzburg / Oberndorf AUT eu JN67kx 50 1 Decommissioned 2023-06-15 2013-12-08 2023-06-12 355 221 77
383 NA 989 1022 9.55 ID+7" tone Banja Luka BIH eu JN84pw 40 1 2013-12-08 2024-05-15 750 466 108
384 ADX 1047 1039 10.34 ID+4" gap Andraitx for Palma de Mallorca BAL eu JM19en 1 Also 13.6 cycle 2013-12-08 2024-04-26 989 615 210
384 AT 10.6 ID+9" gap Annecy / Meythet FRA eu JN35au 1 decommissioned June 2024 2013-12-08 2024-02-16 238 148 224
385 BO 406 406 8.38 ID+5" gap Zadar / Bokanjac HRV eu JN74pe 40 1 2013-12-08 2024-05-15 654 407 120
386 LNE 1073 1074 4.74 ID+1" gap Milano / Linate (MI) ITA eu JN45pi 1 WAS LIN - Province : Milano 2013-12-08 2022-07-01 242 150 159
387 RZ 6 10 20.3 DAID Rodez / Marcillac FRA eu JN14fk 1 keyed carrier NDB 2013-12-08 2023-09-23 553 344 235
388 BDG 1025 1023 8.96 ID+5" gap Bydgoszcz / Szwederowo POL eu JO93ac 1 INACTIVE - MISKEYING BDTN - EX SL-534 2013-12-08 2019-04-18 943 586 44
388 PZ 1016 1031 10.04 ID+7" gap Portoroz SVN eu JN65tl 1 unserviceable to 29Jan2023 est 2013-12-08 2024-02-26 466 290 115
390 AVI 1041 1032 8.39 ID+5" gap Aviano (PN) ITA eu JN65fw 35 1 Province : Pordenone 2013-12-08 2023-02-16 362 225 115
390 VAL 989 1010 10.15 ID+5" tone Valjevo SRB eu JN94wh 1 Negative ID : BNNU 2013-12-08 2024-03-10 965 600 106
391 OKR 1016 1023 10.04 ID+5" gap Bratislava / M.R Stefanik / North SVK eu JN88pf 2000 1 2013-12-08 2024-05-15 684 425 78
392.5 TOP 1025 1017 10.08 ID+6" gap Torino / Poirino (TO) ITA eu JN34ww 1 decommissioned 2022-04-21 2013-12-08 2022-03-27 275 171 185
393 EGG 1016 1021 11.13 ID+7" gap Eggenfelden DEU eu JN68ij 1 INACTIVE 2013-12-08 2014-03-08 353 220 70
394 IZA 1010 1018 8.63 ID+5" gap Ibiza BAL eu JM08rv 200 1 WAS IBZ 2013-12-08 2024-05-15 1091 678 212
395 BR 1033 1017 10.08 ID+8"gap Budapest / Ferihegy HNG eu JN97qj 1 INACTIVE - HRD AS 'TST0' (Nov15) 2013-12-08 2015-12-08 840 522 85
395 MLT 971 972 7.33 ID+4.5" gap Malta MLT eu JM75gt 400 1 unserviceable to 15Mar2023 2013-12-08 2021-08-10 1390 864 155
397 CV 1012 1016 8.55 ID+5" gap Dubrovnik / Cavtat HRV eu JN92co 1 2013-12-08 2024-05-15 949 589 120
398 PRU 1022 1015 10.08 ID+6" gap Perugia / San Egidio ITA eu JN63gc 1 decommissioned 2022-06-16 2013-12-08 2022-07-01 585 364 143
400 BRZ 1025 1027 8.42 ID+4" gap Rijeka / Krk / Breza HRV eu JN75ek 2000 1 2013-12-08 2024-05-15 520 323 112
400 TEA 1018 1012 10.08 Teano (CE) ITA eu JN61xh 1 INACTIVE - Province : Caserta - WAS 316.0 2013-12-08 2020-09-06 816 507 143
401 BPL 1027 1012 10.1 ID+2.5" gap Bari / Palese (BA) ITA eu JN81gc 1 Province : Bari 2013-12-08 2021-08-30 963 598 133
402 ZV 1014 1025 9.9 ID + 5" tone Tuzla BIH eu JN94hl 1 MISKEYING 'OV' - WAS ON 420.0 2013-12-08 2019-06-03 867 539 108
403 LPS 413 390 10.01 ID+6" gap Les Eplatures SUI eu JN37jb 1 inactive since 2023-11-03 2013-12-08 2023-09-25 113 70 251
404 BMR 1024 1021 8.12 Baia Mare ROU eu KN17qq 1 NEGATIVE ID = VENA 2013-12-08 2024-05-15 1137 706 82
405 KW 1020 1104 10 Klagenfurt AUT eu JN76cq 40 1 INACTIVE 2013-12-08 2015-10-23 461 287 97
406 HON 1037 1036 16.32 ID+10" tone Holzdorf DEU eu JO61ns 25 1 Former HOZ-406. Operating times: sign on Mon - Fri between 0430 and 06:30; sign off Mon - Thu between 16:00 and 20:00; Fri between 12:00 and 14:00 2013-12-08 2024-01-29 602 374 34
407 LUP 1043 1047 16.53 ID+11" tone Laupheim DEU eu JN48wf 30 1 2013-12-08 2024-05-15 155 96 52
407 SRT 1018 1040 8.4 ID+6" gap Sirte LBY af JM81he 1 INACTIVE 2013-12-08 2015-04-25 1939 1205 155
408 BRK 1026 1022 10.08 ID+6" gap Wien / Schwechat / Bruck AUT eu JN88ib 1 Decommissioned 2022-09-01 2013-12-08 2022-08-28 640 397 80
412 PP 1019 1022 10.04 ID+6" gap Pecs / Pogany HNG eu JN96ca 1 2013-12-08 2024-05-15 777 483 97
412 SIG 1022 1030 7.01 ID+3" gap Sigonella (CT) SCY eu JM77lj 1 Province : Catania 2013-12-08 2024-05-15 1241 771 151
413 BOA 1018 1025 8.8 ID+4" gap Bologna (BO) ITA eu JN54on 40 1 INACTIVE - Province : Bologna VEEN = Negative Keying 2013-12-08 2018-10-14 391 243 142
413 KTI 1020 1019 10.03 Innsbruck / Kuhtai AUT eu JN57mf 25 1 INACTIVE 2013-12-08 2015-10-25 214 133 93
414 GR 1020 1021 8.12 ID+6" gap Dubrovnik / Gruda HRV eu JN92dm 1 2013-12-08 2024-05-15 960 596 120
416 KUN 1018 1023 5.11 Kunovice CZE eu JN89sc 1 2013-12-08 2024-05-15 716 445 71
418 DVN 1017 1025 8.12 ID+5" gap Split / Drvenik HRV eu JN83bk 1 2013-12-08 2024-05-01 758 471 122
420 INN 1023 1018 10.08 ID+8" gap Innsbruck AUT eu JN57qf 40 1 2013-12-08 2024-05-15 239 149 93
423 FOR 1013 1026 8.28 Forli (FC) ITA eu JN54xf 1 INACTIVE - Province : Forlì - Cesena 2013-12-08 2018-06-24 456 284 139
424 PIS 1018 1023 8.13 ID+5" gap Zagreb / Pleso / Pisarovina HRV eu JN75wo 1 2013-12-08 2024-05-15 619 385 105
426 GBG 400 397 10.04 ID+6" gap Gleichenberg for Graz AUT eu JN76vv 100 1 2013-12-08 2024-05-15 576 358 92
426 SOR 1020 1017 10.04 ID+6" gap Sorrento (NA) ITA eu JN70en 1 Province : Napoli 2013-12-08 2021-08-30 905 562 144
429 LOS 1020 1026 8.12 ID+4" gap Losinj HRV eu JN74fm 40 1 2013-12-08 2024-05-15 579 360 121
430 BUG 1023 1010 10.08 ID+6" gap Bugac HNG eu JN96uq 1 INACTIVE 2013-12-08 2019-03-30 874 543 90
432 PK 1032 1120 13.74 ID+8" gap Pardubice / Prvek CZE eu JO70va 1 2013-12-08 2024-04-26 628 390 59
435 GHT 1023 1027 8.4 ID+5" gap Ghat LBY af JL55be 1 INACTIVE 2013-12-08 2017-12-09 2475 1538 175
438 B 1023 1016 10.02 ID+9" gap Bratislava / M.R Stefanik / Barka SVK eu JN88od 1 2013-12-08 2024-05-15 677 421 79
438 KO 1035 1031 8.43 ID+5\" gap Rijeka / Krk / Kozala HRV eu JN75fi 1 EX KO 302.0 2013-12-08 2023-04-22 530 329 113
440 PIA 1020 1020 5.96 ID+2" gap San Giorgio Piacentino (PC) ITA eu JN44vu 1 INACTIVE - Province : Piacenza 2013-12-08 2016-07-23 308 191 156
448 LQ 1041 1034 16.54 ID+13" tone Landsberg DEU eu JN58mc 25 1 2013-12-08 2018-03-22 226 140 68
452 ANS 1061 1031 7.95 ID+5\" gap Ansbach DEU eu JN59hh 1 2013-12-08 2024-03-10 278 173 39
468 FTZ 1035 1036 16.6 ID+12" tone Fritzlar DEU eu JO41pc 25 1 2013-12-08 2023-09-04 420 261 10
470 UZ 958 1075 9.73 ID+6" tone Uzice / Ponikve SRB eu JN93wu 1 2013-12-08 2024-05-15 988 614 109
474 BIA 1026 1028 5.3 ID+2.5" gap Rzeszow / Jasionka POL eu KO10bc 1 INACTIVE - WAS RZ 2013-12-08 2018-06-24 1062 660 68
477 RP 1024 1023 10.87 Malacky - Kuchyna SVK eu JN88nl 1 EREE/EREA = Negative Keying 2013-12-08 2024-05-15 675 419 76
480 VIB 1004 1032 7.2 ID+3" gap Viterbo (VT) ITA eu JN62ak 1 INACTIVE - Province : Viterbo 2013-12-08 2015-05-30 628 390 149
484 HOF 1043 1030 12.27 Hof DEU eu JO50vg 25 1 INACTIVE 2013-12-08 2019-06-03 413 257 38
488 ILM 1066 1009 8.02 ID+5" gap Illesheim DEU eu JN59el 1 2013-12-08 2024-03-10 281 175 33
490 WAK 1017 1019 5.62 ID+5" gap Vakarel BUL eu KN12un 1 2013-12-08 2024-06-12 1329 826 108
508 Z 1023 1013 10.08 ID+9" gap Zilina / Hlinik SVK eu JN99hf 1 2013-12-08 2024-05-15 796 495 71
517 ARD 1023 1022 8.12 ID+4" gap Arad ROU eu KN06ne 1 ALSO SO HEARD WITH CONT. ID 2013-12-08 2024-05-15 991 616 93